Batumi International Airport
UGSB : rendu visible

Aérodrome :











RETROUVEZ-NOUS SUR...

 
LOGIN :

S'inscrire | Disclaimer

   EN    FR    IT 

 









Légende :    VFR   VFR Marginal   IFR   IFR Intensif   IFR Très Intensif
Visi : 
Plafond : 
>= 8 km
>= 3000ft
5 à 8 km
1000 à 3000 ft
1500m à 5 km
500 à 1000 ft
800 à 1500m
200 à 500 ft
< 800m
< 200 ft
Symboles :   Orages  Brouillard  Fortes neiges  Fortes précipitations  Vent > 20 kt







- Altitude de l'aérodrome : 105 ft
- Code IATA : BUS


UGSB - Batumi International

DERNIER METAR :
  • 211630Z 14012KT CAVOK 11/09 Q1018 R13/CLRD70 NOSIG

METARs EXPIRÉS :
  • 211600Z 11007KT CAVOK 11/09 Q1018 R13/CLRD70 NOSIG
  • 211530Z 12007KT CAVOK 11/09 Q1018 R13/70D NOSIG
  • 211500Z 12006KT 080V140 CAVOK 11/08 Q1018 R13/CLRD70 NOSIG
  • 211430Z 03003KT CAVOK 15/09 Q1018 R13/CLRD70 NOSIG
  • 211400Z 02003KT 350V050 CAVOK 15/09 Q1018 R13/CLRD70 NOSIG

TAF TAF UGSB
Valide du 21 à 12h jusqu'au 22 à 12h UTC


211100Z 2112/2212 VRB03KT CAVOK TX17/2112Z TN11/2202Z
BECMG 2115/2117 13010KT
TEMPO 2200/2206 12020KT
BECMG 2208/2209 34008KT
FIR UGGG / Asie



MET'MAP, la Météo Aéronautique d'un coup d'oeil ! - Copyright ORBIFLY Décembre 2007 - Disclaimer

ORBIFLY MET'MAP TEAM :

Programmation & Développement : Alexandra Zaïnal
Conception & Développement : Baudouin d'Aumeries
Co-Programmation & Développement : Marc-Olivier Méhu
Soutien technique & logistique : Manuel Goepfert

Contact : metmap@orbifly.com




SOURCES & CREDITS :

   NOAA       Earth
Advisory